Date,TemperatureHighF,TemperatureAvgF,TemperatureLowF,DewpointHighF,DewpointAvgF,DewpointLowF,HumidityHigh,HumidityAvg,HumidityLow,PressureMaxIn,PressureMinIn,WindSpeedMaxMPH,WindSpeedAvgMPH,GustSpeedMaxMPH,PrecipitationSumIn
2013-11-1,56,41,31,38,29,22,84,64,42,30.27,30.15,3,0,8,0.00
2013-11-2,59,46,35,32,27,20,65,48,34,30.15,29.91,8,2,15,0.00
2013-11-3,40,34,27,28,19,13,69,55,44,30.06,29.97,2,1,6,0.00
2013-11-4,40,31,25,20,14,11,57,49,41,30.15,29.94,2,0,6,0.00
2013-11-5,50,34,24,23,16,9,57,47,33,30.27,30.12,3,0,8,0.00
2013-11-6,57,40,32,30,23,19,63,51,35,30.30,30.24,2,0,6,0.00
2013-11-7,61,48,39,30,15,-11,53,32,6,30.27,30.09,7,2,17,0.00
2013-11-8,59,44,35,31,22,16,50,41,34,30.12,30.03,4,1,9,0.00
2013-11-9,58,43,34,33,24,19,60,48,35,30.15,30.09,2,0,6,0.00
2013-11-10,60,44,34,32,21,13,51,40,25,30.21,30.12,2,0,7,0.00
2013-11-11,59,46,36,28,18,10,39,33,26,30.27,30.18,4,0,6,0.00
2013-11-12,61,51,40,31,23,16,45,33,27,30.33,30.24,5,1,13,0.00
2013-11-13,57,45,37,32,25,20,56,45,35,30.33,30.24,2,0,7,0.00
2013-11-16,49,37,30,26,20,18,62,51,40,29.91,29.80,3,0,6,0.00
2013-11-17,53,38,28,30,22,17,68,54,40,30.12,29.91,3,0,6,0.00
2013-11-18,51,41,31,31,25,16,58,51,46,30.09,30.00,9,1,20,0.00
2013-11-19,50,44,39,37,31,25,88,62,51,30.03,29.94,6,2,15,0.00
2013-11-20,46,40,32,39,36,31,96,87,71,29.94,29.85,4,0,7,0.29
2013-11-21,32,27,21,31,24,17,96,88,81,30.21,29.91,1,0,3,0.00
2013-11-22,33,25,19,19,15,14,83,68,48,30.24,30.15,2,1,6,0.08
2013-11-23,38,28,23,18,14,12,69,56,39,30.15,30.09,3,1,6,0.13
2013-11-24,41,29,22,22,16,12,70,60,42,30.24,30.06,2,0,5,0.04
2013-11-25,46,32,24,26,19,13,68,60,44,30.30,30.21,2,0,4,0.00
2013-11-26,47,35,28,29,23,18,70,62,47,30.27,30.12,2,0,4,0.00
2013-11-27,46,36,30,29,25,22,76,66,50,30.12,29.97,1,0,4,0.00
2013-11-28,45,34,30,30,26,24,80,72,55,30.12,29.94,2,0,5,0.00
2013-11-29,46,33,27,32,25,18,89,72,52,30.24,30.12,2,0,6,0.00
2013-11-30,47,34,27,29,22,16,73,61,47,30.27,30.18,2,0,6,0.00